RYR5804 ESMS-EPMO
Flight info
| Callsign | RYR5804 |
|---|---|
| Flight time | 0h 57m |
| Altitude | 35000 |
| Route | TELMO DCT KOLOB DCT ELPOL N195 SORIX |
| Aircraft | B738/M-SDE2E3FGHIRWXY/LB1 |
Departure
| Time | 2026-04-25 09:19 |
|---|---|
| Airport | Malmö Sturup Airport (ESMS) |
Arrival
| Time | 2026-04-25 10:16 |
|---|---|
| Airport | Warsaw Modlin Airport (EPMO) |
| Time | Latitude | Longitude | Altitude | Speed | Heading |
|---|---|---|---|---|---|
| 2026-04-25 08:45 | 55.54231 | 13.36769 | 231 ft | 0 kts | 353° |
| 2026-04-25 09:08 | 55.54217 | 13.36772 | 232 ft | 4 kts | 353° |
| 2026-04-25 09:09 | 55.54193 | 13.36777 | 231 ft | 2 kts | 353° |
| 2026-04-25 09:09 | 55.54171 | 13.36775 | 232 ft | 4 kts | 37° |
| 2026-04-25 09:09 | 55.54160 | 13.36742 | 231 ft | 3 kts | 83° |
| 2026-04-25 09:09 | 55.54159 | 13.36722 | 230 ft | 0 kts | 83° |
| 2026-04-25 09:12 | 55.54159 | 13.36726 | 230 ft | 1 kts | 83° |
| 2026-04-25 09:13 | 55.54162 | 13.36779 | 232 ft | 8 kts | 84° |
| 2026-04-25 09:13 | 55.54170 | 13.36905 | 230 ft | 12 kts | 84° |
| 2026-04-25 09:13 | 55.54182 | 13.37045 | 232 ft | 11 kts | 73° |
| 2026-04-25 09:13 | 55.54189 | 13.37182 | 232 ft | 12 kts | 118° |
| 2026-04-25 09:14 | 55.54111 | 13.37228 | 232 ft | 14 kts | 176° |
| 2026-04-25 09:14 | 55.53997 | 13.37251 | 231 ft | 19 kts | 173° |
| 2026-04-25 09:14 | 55.53867 | 13.37279 | 231 ft | 19 kts | 174° |
| 2026-04-25 09:14 | 55.53740 | 13.37301 | 230 ft | 18 kts | 174° |
| 2026-04-25 09:15 | 55.53618 | 13.37328 | 230 ft | 17 kts | 173° |
| 2026-04-25 09:15 | 55.53501 | 13.37355 | 230 ft | 17 kts | 173° |
| 2026-04-25 09:15 | 55.53387 | 13.37374 | 230 ft | 16 kts | 175° |
| 2026-04-25 09:15 | 55.53277 | 13.37399 | 232 ft | 17 kts | 173° |
| 2026-04-25 09:16 | 55.53149 | 13.37425 | 231 ft | 20 kts | 173° |
| 2026-04-25 09:16 | 55.53009 | 13.37453 | 231 ft | 20 kts | 173° |
| 2026-04-25 09:16 | 55.52873 | 13.37481 | 231 ft | 19 kts | 173° |
| 2026-04-25 09:16 | 55.52741 | 13.37513 | 230 ft | 19 kts | 172° |
| 2026-04-25 09:17 | 55.52489 | 13.37566 | 232 ft | 18 kts | 166° |
| 2026-04-25 09:17 | 55.52382 | 13.37661 | 231 ft | 17 kts | 147° |
| 2026-04-25 09:17 | 55.52314 | 13.37813 | 235 ft | 16 kts | 87° |
| 2026-04-25 09:18 | 55.52399 | 13.37875 | 238 ft | 12 kts | 352° |
| 2026-04-25 09:18 | 55.52530 | 13.37847 | 238 ft | 44 kts | 353° |
| 2026-04-25 09:18 | 55.53072 | 13.37733 | 240 ft | 110 kts | 353° |
| 2026-04-25 09:18 | 55.54000 | 13.37588 | 374 ft | 149 kts | 352° |
| 2026-04-25 09:19 | 55.55033 | 13.37464 | 1040 ft | 149 kts | 346° |
| 2026-04-25 09:19 | 55.56063 | 13.37220 | 1812 ft | 150 kts | 343° |
| 2026-04-25 09:19 | 55.57147 | 13.36965 | 2270 ft | 169 kts | 346° |
| 2026-04-25 09:19 | 55.58391 | 13.36684 | 2588 ft | 187 kts | 347° |
| 2026-04-25 09:20 | 55.59709 | 13.36403 | 3105 ft | 193 kts | 348° |
| 2026-04-25 09:20 | 55.61060 | 13.36144 | 3659 ft | 200 kts | 352° |
| 2026-04-25 09:20 | 55.62452 | 13.36740 | 4344 ft | 216 kts | 21° |
| 2026-04-25 09:20 | 55.63638 | 13.38459 | 4958 ft | 234 kts | 45° |
| 2026-04-25 09:21 | 55.64331 | 13.41156 | 5567 ft | 253 kts | 75° |
| 2026-04-25 09:21 | 55.64214 | 13.44330 | 6134 ft | 269 kts | 108° |
| 2026-04-25 09:21 | 55.63198 | 13.47128 | 6696 ft | 273 kts | 142° |
| 2026-04-25 09:21 | 55.61618 | 13.48889 | 7367 ft | 267 kts | 159° |
| 2026-04-25 09:22 | 55.59951 | 13.50383 | 8040 ft | 270 kts | 160° |
| 2026-04-25 09:22 | 55.58266 | 13.51921 | 8724 ft | 274 kts | 159° |
| 2026-04-25 09:22 | 55.56543 | 13.53376 | 9405 ft | 273 kts | 172° |
| 2026-04-25 09:22 | 55.54659 | 13.53840 | 9734 ft | 282 kts | 185° |
| 2026-04-25 09:23 | 55.52612 | 13.54067 | 9965 ft | 306 kts | 184° |
| 2026-04-25 09:23 | 55.50386 | 13.54345 | 10146 ft | 331 kts | 182° |
| 2026-04-25 09:23 | 55.48062 | 13.54980 | 10557 ft | 354 kts | 166° |
| 2026-04-25 09:23 | 55.45910 | 13.57254 | 11237 ft | 370 kts | 139° |
| 2026-04-25 09:24 | 55.44243 | 13.60738 | 12035 ft | 374 kts | 129° |
| 2026-04-25 09:24 | 55.42635 | 13.64372 | 12767 ft | 379 kts | 129° |
| 2026-04-25 09:24 | 55.41005 | 13.68054 | 13503 ft | 384 kts | 130° |
| 2026-04-25 09:24 | 55.39348 | 13.71774 | 14205 ft | 388 kts | 130° |
| 2026-04-25 09:25 | 55.38237 | 13.74252 | 14681 ft | 390 kts | 130° |
| 2026-04-25 09:25 | 55.35968 | 13.79283 | 15655 ft | 395 kts | 130° |
| 2026-04-25 09:25 | 55.34831 | 13.81790 | 16128 ft | 398 kts | 131° |
| 2026-04-25 09:25 | 55.33094 | 13.85605 | 16823 ft | 402 kts | 131° |
| 2026-04-25 09:26 | 55.31336 | 13.89457 | 17524 ft | 406 kts | 131° |
| 2026-04-25 09:26 | 55.29557 | 13.93345 | 18233 ft | 411 kts | 131° |
| 2026-04-25 09:26 | 55.27755 | 13.97274 | 18822 ft | 415 kts | 131° |
| 2026-04-25 09:26 | 55.25935 | 14.01238 | 19414 ft | 419 kts | 131° |
| 2026-04-25 09:27 | 55.24095 | 14.05239 | 20011 ft | 423 kts | 131° |
| 2026-04-25 09:27 | 55.22238 | 14.09270 | 20594 ft | 427 kts | 131° |
| 2026-04-25 09:27 | 55.20359 | 14.13344 | 21177 ft | 432 kts | 131° |
| 2026-04-25 09:27 | 55.18464 | 14.17443 | 21750 ft | 436 kts | 131° |
| 2026-04-25 09:28 | 55.16547 | 14.21583 | 22318 ft | 440 kts | 131° |
| 2026-04-25 09:28 | 55.14613 | 14.25756 | 22890 ft | 444 kts | 131° |
| 2026-04-25 09:28 | 55.12658 | 14.29964 | 23433 ft | 448 kts | 131° |
| 2026-04-25 09:28 | 55.10686 | 14.34203 | 23891 ft | 451 kts | 131° |
| 2026-04-25 09:29 | 55.08698 | 14.38469 | 24360 ft | 454 kts | 132° |
| 2026-04-25 09:29 | 55.06699 | 14.42749 | 24885 ft | 455 kts | 131° |
| 2026-04-25 09:29 | 55.04694 | 14.47037 | 25368 ft | 458 kts | 131° |
| 2026-04-25 09:29 | 55.02671 | 14.51355 | 25799 ft | 461 kts | 131° |
| 2026-04-25 09:30 | 55.00631 | 14.55701 | 26234 ft | 465 kts | 131° |
| 2026-04-25 09:30 | 54.98604 | 14.60012 | 26640 ft | 468 kts | 131° |
| 2026-04-25 09:30 | 54.96533 | 14.64410 | 27068 ft | 471 kts | 131° |
| 2026-04-25 09:30 | 54.94447 | 14.68830 | 27491 ft | 474 kts | 131° |
| 2026-04-25 09:31 | 54.92349 | 14.73270 | 27902 ft | 477 kts | 131° |
| 2026-04-25 09:31 | 54.90238 | 14.77729 | 28306 ft | 479 kts | 131° |
| 2026-04-25 09:31 | 54.88110 | 14.82216 | 28696 ft | 482 kts | 131° |
| 2026-04-25 09:31 | 54.85976 | 14.86711 | 29165 ft | 482 kts | 131° |
| 2026-04-25 09:32 | 54.83840 | 14.91199 | 29673 ft | 482 kts | 131° |
| 2026-04-25 09:32 | 54.81794 | 14.95848 | 29961 ft | 488 kts | 123° |
| 2026-04-25 09:32 | 54.80142 | 15.00829 | 30200 ft | 492 kts | 118° |
| 2026-04-25 09:32 | 54.78542 | 15.06075 | 30544 ft | 493 kts | 118° |
| 2026-04-25 09:33 | 54.76962 | 15.11331 | 30998 ft | 490 kts | 118° |
| 2026-04-25 09:33 | 54.75384 | 15.16541 | 31479 ft | 488 kts | 118° |
| 2026-04-25 09:33 | 54.73791 | 15.21723 | 31891 ft | 487 kts | 119° |
| 2026-04-25 09:33 | 54.72185 | 15.26883 | 32258 ft | 487 kts | 119° |
| 2026-04-25 09:34 | 54.70569 | 15.32029 | 32669 ft | 486 kts | 120° |
| 2026-04-25 09:34 | 54.68975 | 15.37086 | 33123 ft | 484 kts | 120° |
| 2026-04-25 09:34 | 54.67342 | 15.42252 | 33538 ft | 483 kts | 120° |
| 2026-04-25 09:34 | 54.65733 | 15.47339 | 33890 ft | 483 kts | 120° |
| 2026-04-25 09:35 | 54.64145 | 15.52352 | 34196 ft | 482 kts | 120° |
| 2026-04-25 09:35 | 54.62540 | 15.57412 | 34525 ft | 481 kts | 120° |
| 2026-04-25 09:35 | 54.60930 | 15.62463 | 34812 ft | 480 kts | 121° |
| 2026-04-25 09:36 | 54.57194 | 15.72100 | 34837 ft | 485 kts | 128° |
| 2026-04-25 09:36 | 54.53167 | 15.81371 | 34829 ft | 479 kts | 129° |
| 2026-04-25 09:37 | 54.49198 | 15.90532 | 34850 ft | 477 kts | 129° |
| 2026-04-25 09:37 | 54.45265 | 15.99729 | 34820 ft | 477 kts | 128° |
| 2026-04-25 09:38 | 54.41390 | 16.08822 | 34838 ft | 477 kts | 128° |
| 2026-04-25 09:38 | 54.37458 | 16.18008 | 34858 ft | 477 kts | 128° |
| 2026-04-25 09:39 | 54.33526 | 16.27174 | 34858 ft | 477 kts | 128° |
| 2026-04-25 09:39 | 54.29588 | 16.36316 | 34860 ft | 477 kts | 128° |
| 2026-04-25 09:40 | 54.23673 | 16.49972 | 34856 ft | 476 kts | 128° |
| 2026-04-25 09:40 | 54.19725 | 16.59045 | 34865 ft | 475 kts | 128° |
| 2026-04-25 09:41 | 54.15775 | 16.68092 | 34866 ft | 475 kts | 129° |
| 2026-04-25 09:41 | 54.11819 | 16.77120 | 34861 ft | 475 kts | 129° |
| 2026-04-25 09:42 | 54.07864 | 16.86113 | 34867 ft | 474 kts | 129° |
| 2026-04-25 09:42 | 54.03913 | 16.95072 | 34859 ft | 473 kts | 129° |
| 2026-04-25 09:43 | 54.00022 | 17.03854 | 34863 ft | 473 kts | 129° |
| 2026-04-25 09:43 | 53.96056 | 17.12765 | 34871 ft | 474 kts | 129° |
| 2026-04-25 09:44 | 53.92072 | 17.21687 | 34873 ft | 475 kts | 129° |
| 2026-04-25 09:44 | 53.88077 | 17.30609 | 34867 ft | 476 kts | 129° |
| 2026-04-25 09:45 | 53.84069 | 17.39530 | 34864 ft | 476 kts | 129° |
| 2026-04-25 09:45 | 53.80044 | 17.48456 | 34857 ft | 477 kts | 130° |
| 2026-04-25 09:46 | 53.76008 | 17.57373 | 34855 ft | 478 kts | 130° |
| 2026-04-25 09:46 | 53.73982 | 17.61837 | 34700 ft | 481 kts | 130° |
| 2026-04-25 09:46 | 53.71944 | 17.66319 | 34304 ft | 482 kts | 130° |
| 2026-04-25 09:47 | 53.69898 | 17.70814 | 33953 ft | 480 kts | 130° |
| 2026-04-25 09:47 | 53.67865 | 17.75273 | 33513 ft | 478 kts | 130° |
| 2026-04-25 09:47 | 53.65839 | 17.79707 | 33107 ft | 477 kts | 130° |
| 2026-04-25 09:47 | 53.63815 | 17.84129 | 32707 ft | 476 kts | 130° |
| 2026-04-25 09:48 | 53.61797 | 17.88532 | 32305 ft | 474 kts | 130° |
| 2026-04-25 09:48 | 53.59801 | 17.92897 | 31929 ft | 476 kts | 130° |
| 2026-04-25 09:48 | 53.57782 | 17.97387 | 31542 ft | 481 kts | 129° |
| 2026-04-25 09:48 | 53.55804 | 18.01827 | 31069 ft | 485 kts | 129° |
| 2026-04-25 09:49 | 53.53786 | 18.06370 | 30626 ft | 484 kts | 129° |
| 2026-04-25 09:49 | 53.51773 | 18.10897 | 30176 ft | 483 kts | 129° |
| 2026-04-25 09:49 | 53.49763 | 18.15405 | 29712 ft | 481 kts | 129° |
| 2026-04-25 09:49 | 53.47754 | 18.19893 | 29202 ft | 480 kts | 129° |
| 2026-04-25 09:50 | 53.45750 | 18.24354 | 28698 ft | 479 kts | 129° |
| 2026-04-25 09:50 | 53.43744 | 18.28809 | 28214 ft | 478 kts | 129° |
| 2026-04-25 09:50 | 53.41738 | 18.33252 | 27737 ft | 477 kts | 129° |
| 2026-04-25 09:50 | 53.39724 | 18.37702 | 27271 ft | 481 kts | 129° |
| 2026-04-25 09:51 | 53.37691 | 18.42187 | 26799 ft | 485 kts | 129° |
| 2026-04-25 09:51 | 53.35650 | 18.46683 | 26337 ft | 485 kts | 129° |
| 2026-04-25 09:51 | 53.33612 | 18.51167 | 25883 ft | 483 kts | 129° |
| 2026-04-25 09:51 | 53.31579 | 18.55631 | 25435 ft | 482 kts | 129° |
| 2026-04-25 09:52 | 53.29550 | 18.60081 | 24983 ft | 480 kts | 129° |
| 2026-04-25 09:52 | 53.27554 | 18.64448 | 24541 ft | 478 kts | 129° |
| 2026-04-25 09:52 | 53.25544 | 18.68841 | 24114 ft | 475 kts | 129° |
| 2026-04-25 09:52 | 53.23538 | 18.73215 | 23690 ft | 472 kts | 129° |
| 2026-04-25 09:53 | 53.21550 | 18.77544 | 23238 ft | 468 kts | 129° |
| 2026-04-25 09:53 | 53.19578 | 18.81828 | 22744 ft | 464 kts | 129° |
| 2026-04-25 09:53 | 53.17619 | 18.86077 | 22259 ft | 460 kts | 129° |
| 2026-04-25 09:53 | 53.15673 | 18.90292 | 21768 ft | 457 kts | 129° |
| 2026-04-25 09:54 | 53.13739 | 18.94472 | 21308 ft | 454 kts | 129° |
| 2026-04-25 09:54 | 53.11815 | 18.98626 | 20855 ft | 452 kts | 129° |
| 2026-04-25 09:54 | 53.09935 | 19.02676 | 20407 ft | 450 kts | 129° |
| 2026-04-25 09:54 | 53.08025 | 19.06785 | 19957 ft | 448 kts | 129° |
| 2026-04-25 09:55 | 53.06121 | 19.10875 | 19518 ft | 446 kts | 129° |
| 2026-04-25 09:55 | 53.04224 | 19.14943 | 19089 ft | 445 kts | 129° |
| 2026-04-25 09:55 | 53.02327 | 19.19003 | 18666 ft | 443 kts | 129° |
| 2026-04-25 09:55 | 53.00439 | 19.23039 | 18231 ft | 442 kts | 129° |
| 2026-04-25 09:56 | 52.98566 | 19.27037 | 17765 ft | 440 kts | 129° |
| 2026-04-25 09:56 | 52.96689 | 19.31037 | 17291 ft | 438 kts | 129° |
| 2026-04-25 09:56 | 52.94821 | 19.35011 | 16815 ft | 435 kts | 129° |
| 2026-04-25 09:56 | 52.92963 | 19.38959 | 16349 ft | 433 kts | 129° |
| 2026-04-25 09:57 | 52.91119 | 19.42871 | 15885 ft | 430 kts | 129° |
| 2026-04-25 09:57 | 52.89283 | 19.46759 | 15433 ft | 427 kts | 129° |
| 2026-04-25 09:57 | 52.87457 | 19.50619 | 14949 ft | 424 kts | 129° |
| 2026-04-25 09:57 | 52.85643 | 19.54450 | 14511 ft | 421 kts | 129° |
| 2026-04-25 09:58 | 52.83839 | 19.58251 | 14077 ft | 419 kts | 129° |
| 2026-04-25 09:58 | 52.82047 | 19.62025 | 13651 ft | 416 kts | 129° |
| 2026-04-25 09:58 | 52.80267 | 19.65765 | 13181 ft | 413 kts | 129° |
| 2026-04-25 09:58 | 52.78496 | 19.69481 | 12706 ft | 410 kts | 129° |
| 2026-04-25 09:59 | 52.76735 | 19.73171 | 12236 ft | 407 kts | 129° |
| 2026-04-25 09:59 | 52.74987 | 19.76829 | 11771 ft | 404 kts | 129° |
| 2026-04-25 09:59 | 52.73251 | 19.80458 | 11320 ft | 402 kts | 129° |
| 2026-04-25 09:59 | 52.71523 | 19.84062 | 10877 ft | 399 kts | 129° |
| 2026-04-25 10:00 | 52.69802 | 19.87649 | 10430 ft | 398 kts | 129° |
| 2026-04-25 10:00 | 52.68097 | 19.91196 | 10001 ft | 392 kts | 129° |
| 2026-04-25 10:00 | 52.66416 | 19.94690 | 9866 ft | 389 kts | 129° |
| 2026-04-25 10:00 | 52.64757 | 19.98132 | 9837 ft | 387 kts | 129° |
| 2026-04-25 10:01 | 52.63117 | 20.01529 | 9836 ft | 386 kts | 129° |
| 2026-04-25 10:01 | 52.61444 | 20.04992 | 9832 ft | 387 kts | 129° |
| 2026-04-25 10:01 | 52.59771 | 20.08450 | 9835 ft | 387 kts | 129° |
| 2026-04-25 10:01 | 52.58095 | 20.11911 | 9835 ft | 387 kts | 129° |
| 2026-04-25 10:02 | 52.56420 | 20.15365 | 9834 ft | 386 kts | 129° |
| 2026-04-25 10:02 | 52.54742 | 20.18820 | 9835 ft | 387 kts | 129° |
| 2026-04-25 10:02 | 52.53061 | 20.22274 | 9836 ft | 387 kts | 129° |
| 2026-04-25 10:02 | 52.51444 | 20.25795 | 9823 ft | 387 kts | 121° |
| 2026-04-25 10:03 | 52.50527 | 20.29928 | 9641 ft | 386 kts | 97° |
| 2026-04-25 10:03 | 52.50504 | 20.34264 | 9384 ft | 376 kts | 79° |
| 2026-04-25 10:03 | 52.50912 | 20.38469 | 9140 ft | 372 kts | 77° |
| 2026-04-25 10:03 | 52.51354 | 20.42643 | 8872 ft | 371 kts | 77° |
| 2026-04-25 10:04 | 52.51789 | 20.46813 | 8612 ft | 370 kts | 77° |
| 2026-04-25 10:04 | 52.52202 | 20.50925 | 8353 ft | 370 kts | 78° |
| 2026-04-25 10:04 | 52.52605 | 20.55088 | 8101 ft | 369 kts | 78° |
| 2026-04-25 10:04 | 52.53000 | 20.59246 | 7844 ft | 368 kts | 78° |
| 2026-04-25 10:05 | 52.53390 | 20.63393 | 7584 ft | 367 kts | 78° |
| 2026-04-25 10:05 | 52.53775 | 20.67531 | 7337 ft | 366 kts | 78° |
| 2026-04-25 10:05 | 52.54158 | 20.71665 | 7092 ft | 366 kts | 78° |
| 2026-04-25 10:05 | 52.54539 | 20.75787 | 6838 ft | 364 kts | 78° |
| 2026-04-25 10:06 | 52.54919 | 20.79896 | 6582 ft | 363 kts | 79° |
| 2026-04-25 10:06 | 52.55293 | 20.83969 | 6241 ft | 359 kts | 79° |
| 2026-04-25 10:06 | 52.55665 | 20.88032 | 5638 ft | 360 kts | 79° |
| 2026-04-25 10:06 | 52.56017 | 20.92067 | 5040 ft | 352 kts | 83° |
| 2026-04-25 10:07 | 52.55819 | 20.96004 | 4440 ft | 342 kts | 104° |
| 2026-04-25 10:07 | 52.55519 | 20.99822 | 3844 ft | 335 kts | 86° |
| 2026-04-25 10:07 | 52.55873 | 21.03437 | 3556 ft | 319 kts | 77° |
| 2026-04-25 10:07 | 52.56353 | 21.06891 | 3408 ft | 300 kts | 76° |
| 2026-04-25 10:08 | 52.56802 | 21.10112 | 3365 ft | 279 kts | 82° |
| 2026-04-25 10:08 | 52.56660 | 21.13150 | 3381 ft | 258 kts | 113° |
| 2026-04-25 10:08 | 52.55719 | 21.15477 | 3389 ft | 237 kts | 147° |
| 2026-04-25 10:08 | 52.54283 | 21.16575 | 3399 ft | 225 kts | 180° |
| 2026-04-25 10:09 | 52.52790 | 21.16226 | 3396 ft | 216 kts | 212° |
| 2026-04-25 10:09 | 52.51722 | 21.14608 | 3389 ft | 209 kts | 244° |
| 2026-04-25 10:09 | 52.51441 | 21.12307 | 3387 ft | 210 kts | 277° |
| 2026-04-25 10:09 | 52.51834 | 21.10012 | 3408 ft | 212 kts | 281° |
| 2026-04-25 10:10 | 52.51997 | 21.07624 | 3412 ft | 210 kts | 270° |
| 2026-04-25 10:10 | 52.51963 | 21.05237 | 3419 ft | 208 kts | 265° |
| 2026-04-25 10:10 | 52.51786 | 21.02890 | 3406 ft | 206 kts | 261° |
| 2026-04-25 10:10 | 52.51497 | 21.00592 | 3395 ft | 205 kts | 257° |
| 2026-04-25 10:11 | 52.51132 | 20.98346 | 3386 ft | 203 kts | 255° |
| 2026-04-25 10:11 | 52.50735 | 20.96130 | 3381 ft | 202 kts | 254° |
| 2026-04-25 10:11 | 52.50332 | 20.93970 | 3372 ft | 191 kts | 253° |
| 2026-04-25 10:11 | 52.49951 | 20.91989 | 3204 ft | 175 kts | 252° |
| 2026-04-25 10:12 | 52.49578 | 20.90154 | 2955 ft | 166 kts | 251° |
| 2026-04-25 10:12 | 52.49206 | 20.88460 | 2789 ft | 154 kts | 249° |
| 2026-04-25 10:12 | 52.48410 | 20.85435 | 2262 ft | 136 kts | 246° |
| 2026-04-25 10:13 | 52.48000 | 20.84116 | 2105 ft | 122 kts | 245° |
| 2026-04-25 10:13 | 52.47579 | 20.82853 | 1951 ft | 127 kts | 243° |
| 2026-04-25 10:13 | 52.47146 | 20.81587 | 1712 ft | 129 kts | 248° |
| 2026-04-25 10:13 | 52.46805 | 20.80222 | 1498 ft | 126 kts | 247° |
| 2026-04-25 10:14 | 52.46501 | 20.78911 | 1315 ft | 122 kts | 252° |
| 2026-04-25 10:14 | 52.46290 | 20.77559 | 1147 ft | 129 kts | 257° |
| 2026-04-25 10:14 | 52.46129 | 20.76011 | 1060 ft | 136 kts | 259° |
| 2026-04-25 10:14 | 52.45991 | 20.74513 | 1006 ft | 130 kts | 261° |
| 2026-04-25 10:15 | 52.45870 | 20.73093 | 911 ft | 124 kts | 259° |
| 2026-04-25 10:15 | 52.45741 | 20.71715 | 830 ft | 124 kts | 257° |
| 2026-04-25 10:15 | 52.45587 | 20.70166 | 730 ft | 137 kts | 261° |
| 2026-04-25 10:15 | 52.45456 | 20.68655 | 603 ft | 132 kts | 258° |
| 2026-04-25 10:16 | 52.45313 | 20.67200 | 391 ft | 128 kts | 258° |
| 2026-04-25 10:16 | 52.45183 | 20.65825 | 339 ft | 112 kts | 259° |
| 2026-04-25 10:16 | 52.45088 | 20.64809 | 336 ft | 69 kts | 261° |
| 2026-04-25 10:16 | 52.45054 | 20.64461 | 336 ft | 11 kts | 256° |
| 2026-04-25 10:17 | 52.44999 | 20.64387 | 337 ft | 11 kts | 184° |
| 2026-04-25 10:17 | 52.44940 | 20.64383 | 337 ft | 7 kts | 181° |
| 2026-04-25 10:17 | 52.44902 | 20.64381 | 336 ft | 9 kts | 181° |
| 2026-04-25 10:17 | 52.44823 | 20.64377 | 337 ft | 14 kts | 182° |
| 2026-04-25 10:18 | 52.44719 | 20.64389 | 334 ft | 13 kts | 138° |
| 2026-04-25 10:18 | 52.44722 | 20.64533 | 335 ft | 13 kts | 81° |
| 2026-04-25 10:18 | 52.44736 | 20.64676 | 333 ft | 12 kts | 81° |
| 2026-04-25 10:18 | 52.44750 | 20.64815 | 337 ft | 12 kts | 81° |
| 2026-04-25 10:19 | 52.44764 | 20.64950 | 336 ft | 12 kts | 81° |
| 2026-04-25 10:19 | 52.44776 | 20.65081 | 335 ft | 12 kts | 81° |
| 2026-04-25 10:19 | 52.44778 | 20.65189 | 333 ft | 7 kts | 127° |
| 2026-04-25 10:19 | 52.44751 | 20.65188 | 336 ft | 3 kts | 201° |
| 2026-04-25 10:20 | 52.44740 | 20.65180 | 334 ft | 1 kts | 204° |
| 2026-04-25 10:20 | 52.44736 | 20.65177 | 334 ft | 0 kts | 205° |